sensor_id;sensor_type;location;lat;lon;timestamp;P1;durP1;ratioP1;P2;durP2;ratioP2
51228;SDS011;37304;52.216;6.874;2023-02-22T00:03:47;31.15;;;12.68;;
51228;SDS011;37304;52.216;6.874;2023-02-22T00:08:49;31.20;;;11.80;;
51228;SDS011;37304;52.216;6.874;2023-02-22T00:13:51;30.23;;;12.18;;
51228;SDS011;37304;52.216;6.874;2023-02-22T00:18:56;34.90;;;12.27;;
51228;SDS011;37304;52.216;6.874;2023-02-22T00:23:56;30.67;;;11.80;;
51228;SDS011;37304;52.216;6.874;2023-02-22T00:28:56;34.57;;;12.60;;
51228;SDS011;37304;52.216;6.874;2023-02-22T00:33:57;38.27;;;13.13;;
51228;SDS011;37304;52.216;6.874;2023-02-22T00:38:57;35.30;;;14.37;;
51228;SDS011;37304;52.216;6.874;2023-02-22T00:43:57;35.57;;;14.50;;
51228;SDS011;37304;52.216;6.874;2023-02-22T00:48:58;38.43;;;14.23;;
51228;SDS011;37304;52.216;6.874;2023-02-22T00:53:58;36.83;;;14.67;;
51228;SDS011;37304;52.216;6.874;2023-02-22T00:58:59;41.70;;;15.07;;
51228;SDS011;37304;52.216;6.874;2023-02-22T01:04:02;38.40;;;14.77;;
51228;SDS011;37304;52.216;6.874;2023-02-22T01:09:04;46.95;;;15.35;;
51228;SDS011;37304;52.216;6.874;2023-02-22T01:14:06;42.03;;;16.80;;
51228;SDS011;37304;52.216;6.874;2023-02-22T01:19:08;46.15;;;18.02;;
51228;SDS011;37304;52.216;6.874;2023-02-22T01:24:10;47.90;;;17.67;;
51228;SDS011;37304;52.216;6.874;2023-02-22T01:29:15;59.25;;;18.05;;
51228;SDS011;37304;52.216;6.874;2023-02-22T01:34:17;58.78;;;19.30;;
51228;SDS011;37304;52.216;6.874;2023-02-22T01:39:17;55.78;;;18.75;;
51228;SDS011;37304;52.216;6.874;2023-02-22T01:44:19;57.13;;;17.73;;
51228;SDS011;37304;52.216;6.874;2023-02-22T01:49:31;55.78;;;18.63;;
51228;SDS011;37304;52.216;6.874;2023-02-22T01:54:38;54.80;;;17.13;;
51228;SDS011;37304;52.216;6.874;2023-02-22T01:59:46;57.40;;;17.23;;
51228;SDS011;37304;52.216;6.874;2023-02-22T02:04:50;54.95;;;17.95;;
51228;SDS011;37304;52.216;6.874;2023-02-22T02:09:59;60.55;;;18.60;;
51228;SDS011;37304;52.216;6.874;2023-02-22T02:41:48;54.97;;;19.42;;
51228;SDS011;37304;52.216;6.874;2023-02-22T02:46:54;62.45;;;18.50;;
51228;SDS011;37304;52.216;6.874;2023-02-22T02:51:59;63.95;;;18.77;;
51228;SDS011;37304;52.216;6.874;2023-02-22T02:57:02;64.65;;;19.17;;
51228;SDS011;37304;52.216;6.874;2023-02-22T03:07:22;58.85;;;19.55;;
51228;SDS011;37304;52.216;6.874;2023-02-22T03:12:31;49.80;;;19.08;;
51228;SDS011;37304;52.216;6.874;2023-02-22T03:17:55;60.42;;;17.45;;
51228;SDS011;37304;52.216;6.874;2023-02-22T03:23:06;71.43;;;20.02;;
51228;SDS011;37304;52.216;6.874;2023-02-22T03:28:16;52.83;;;18.08;;
51228;SDS011;37304;52.216;6.874;2023-02-22T03:33:25;62.75;;;20.00;;
51228;SDS011;37304;52.216;6.874;2023-02-22T03:38:32;59.25;;;18.70;;
51228;SDS011;37304;52.216;6.874;2023-02-22T03:43:37;69.35;;;19.42;;
51228;SDS011;37304;52.216;6.874;2023-02-22T03:54:04;63.47;;;19.42;;
51228;SDS011;37304;52.216;6.874;2023-02-22T03:59:06;67.72;;;20.33;;
51228;SDS011;37304;52.216;6.874;2023-02-22T04:04:08;62.72;;;18.55;;
51228;SDS011;37304;52.216;6.874;2023-02-22T04:09:09;66.37;;;18.57;;
51228;SDS011;37304;52.216;6.874;2023-02-22T04:14:10;63.42;;;18.02;;
51228;SDS011;37304;52.216;6.874;2023-02-22T04:19:10;61.10;;;18.42;;
51228;SDS011;37304;52.216;6.874;2023-02-22T04:24:11;60.07;;;18.87;;
51228;SDS011;37304;52.216;6.874;2023-02-22T04:29:11;73.15;;;18.98;;
51228;SDS011;37304;52.216;6.874;2023-02-22T04:34:12;67.03;;;18.63;;
51228;SDS011;37304;52.216;6.874;2023-02-22T04:39:12;69.80;;;19.47;;
51228;SDS011;37304;52.216;6.874;2023-02-22T04:44:13;61.93;;;19.47;;
51228;SDS011;37304;52.216;6.874;2023-02-22T04:49:13;72.57;;;19.35;;
51228;SDS011;37304;52.216;6.874;2023-02-22T04:54:14;64.43;;;17.73;;
51228;SDS011;37304;52.216;6.874;2023-02-22T04:59:16;74.70;;;20.83;;
51228;SDS011;37304;52.216;6.874;2023-02-22T05:04:18;68.80;;;18.58;;
51228;SDS011;37304;52.216;6.874;2023-02-22T05:09:20;72.22;;;19.38;;
51228;SDS011;37304;52.216;6.874;2023-02-22T05:14:21;80.60;;;19.10;;
51228;SDS011;37304;52.216;6.874;2023-02-22T05:19:21;75.63;;;21.70;;
51228;SDS011;37304;52.216;6.874;2023-02-22T05:24:22;82.53;;;20.75;;
51228;SDS011;37304;52.216;6.874;2023-02-22T05:29:22;83.10;;;22.13;;
51228;SDS011;37304;52.216;6.874;2023-02-22T05:34:22;75.43;;;20.70;;
51228;SDS011;37304;52.216;6.874;2023-02-22T05:39:23;68.87;;;20.37;;
51228;SDS011;37304;52.216;6.874;2023-02-22T05:44:23;80.67;;;23.07;;
51228;SDS011;37304;52.216;6.874;2023-02-22T05:49:23;61.10;;;19.30;;
51228;SDS011;37304;52.216;6.874;2023-02-22T05:54:24;90.07;;;22.27;;
51228;SDS011;37304;52.216;6.874;2023-02-22T05:59:25;92.10;;;24.50;;
51228;SDS011;37304;52.216;6.874;2023-02-22T06:04:25;90.90;;;24.03;;
51228;SDS011;37304;52.216;6.874;2023-02-22T06:09:26;103.88;;;25.58;;
51228;SDS011;37304;52.216;6.874;2023-02-22T06:14:27;90.10;;;22.93;;
51228;SDS011;37304;52.216;6.874;2023-02-22T06:19:27;87.30;;;23.23;;
51228;SDS011;37304;52.216;6.874;2023-02-22T06:24:27;85.87;;;23.00;;
51228;SDS011;37304;52.216;6.874;2023-02-22T06:29:28;98.27;;;24.20;;
51228;SDS011;37304;52.216;6.874;2023-02-22T06:34:28;94.70;;;24.73;;
51228;SDS011;37304;52.216;6.874;2023-02-22T06:39:29;111.20;;;27.80;;
51228;SDS011;37304;52.216;6.874;2023-02-22T06:44:29;117.60;;;24.67;;
51228;SDS011;37304;52.216;6.874;2023-02-22T06:49:29;137.40;;;27.27;;
51228;SDS011;37304;52.216;6.874;2023-02-22T06:54:30;123.03;;;25.53;;
51228;SDS011;37304;52.216;6.874;2023-02-22T06:59:30;120.57;;;24.73;;
51228;SDS011;37304;52.216;6.874;2023-02-22T07:04:30;114.70;;;25.07;;
51228;SDS011;37304;52.216;6.874;2023-02-22T07:09:31;128.87;;;24.53;;
51228;SDS011;37304;52.216;6.874;2023-02-22T07:14:31;99.15;;;21.67;;
51228;SDS011;37304;52.216;6.874;2023-02-22T07:19:32;114.37;;;22.33;;
51228;SDS011;37304;52.216;6.874;2023-02-22T07:24:32;115.87;;;24.37;;
51228;SDS011;37304;52.216;6.874;2023-02-22T07:29:34;112.18;;;22.58;;
51228;SDS011;37304;52.216;6.874;2023-02-22T07:34:36;126.38;;;23.13;;
51228;SDS011;37304;52.216;6.874;2023-02-22T07:39:37;92.23;;;21.47;;
51228;SDS011;37304;52.216;6.874;2023-02-22T07:44:37;79.17;;;20.87;;
51228;SDS011;37304;52.216;6.874;2023-02-22T07:49:41;64.32;;;20.70;;
51228;SDS011;37304;52.216;6.874;2023-02-22T07:54:47;60.10;;;18.48;;
51228;SDS011;37304;52.216;6.874;2023-02-22T07:59:47;59.10;;;17.70;;
51228;SDS011;37304;52.216;6.874;2023-02-22T08:04:48;80.07;;;20.10;;
51228;SDS011;37304;52.216;6.874;2023-02-22T08:09:49;61.97;;;17.95;;
51228;SDS011;37304;52.216;6.874;2023-02-22T08:14:50;54.47;;;16.50;;
51228;SDS011;37304;52.216;6.874;2023-02-22T08:19:50;50.57;;;14.70;;
51228;SDS011;37304;52.216;6.874;2023-02-22T08:24:50;54.63;;;17.07;;
51228;SDS011;37304;52.216;6.874;2023-02-22T08:29:53;66.43;;;17.27;;
51228;SDS011;37304;52.216;6.874;2023-02-22T08:34:54;57.58;;;17.83;;
51228;SDS011;37304;52.216;6.874;2023-02-22T08:39:55;55.00;;;16.10;;
51228;SDS011;37304;52.216;6.874;2023-02-22T08:44:55;39.77;;;13.57;;
51228;SDS011;37304;52.216;6.874;2023-02-22T08:49:58;39.05;;;13.60;;
51228;SDS011;37304;52.216;6.874;2023-02-22T08:54:58;37.50;;;14.00;;
51228;SDS011;37304;52.216;6.874;2023-02-22T09:00:01;40.63;;;12.82;;
51228;SDS011;37304;52.216;6.874;2023-02-22T09:05:04;35.20;;;13.60;;
51228;SDS011;37304;52.216;6.874;2023-02-22T09:10:06;34.38;;;12.90;;
51228;SDS011;37304;52.216;6.874;2023-02-22T09:15:06;49.30;;;15.10;;
51228;SDS011;37304;52.216;6.874;2023-02-22T09:20:08;40.22;;;14.27;;
51228;SDS011;37304;52.216;6.874;2023-02-22T09:25:10;49.67;;;15.75;;
51228;SDS011;37304;52.216;6.874;2023-02-22T09:30:15;52.17;;;16.42;;
51228;SDS011;37304;52.216;6.874;2023-02-22T09:35:26;46.83;;;16.77;;
51228;SDS011;37304;52.216;6.874;2023-02-22T09:40:28;50.67;;;17.50;;
51228;SDS011;37304;52.216;6.874;2023-02-22T09:45:33;54.65;;;20.05;;
51228;SDS011;37304;52.216;6.874;2023-02-22T09:50:44;50.17;;;17.17;;
51228;SDS011;37304;52.216;6.874;2023-02-22T09:55:50;51.03;;;19.35;;
51228;SDS011;37304;52.216;6.874;2023-02-22T10:00:56;48.40;;;18.83;;
51228;SDS011;37304;52.216;6.874;2023-02-22T10:16:32;49.25;;;19.65;;
51228;SDS011;37304;52.216;6.874;2023-02-22T10:27:05;41.50;;;16.83;;
51228;SDS011;37304;52.216;6.874;2023-02-22T10:32:16;44.22;;;16.13;;
51228;SDS011;37304;52.216;6.874;2023-02-22T10:37:25;36.35;;;15.00;;
51228;SDS011;37304;52.216;6.874;2023-02-22T10:42:27;41.92;;;16.60;;
51228;SDS011;37304;52.216;6.874;2023-02-22T10:47:28;37.55;;;13.65;;
51228;SDS011;37304;52.216;6.874;2023-02-22T10:52:30;31.27;;;13.87;;
51228;SDS011;37304;52.216;6.874;2023-02-22T10:57:34;29.65;;;13.10;;
51228;SDS011;37304;52.216;6.874;2023-02-22T11:02:36;34.92;;;14.48;;
51228;SDS011;37304;52.216;6.874;2023-02-22T11:07:36;30.90;;;13.17;;
51228;SDS011;37304;52.216;6.874;2023-02-22T11:12:38;35.60;;;13.87;;
51228;SDS011;37304;52.216;6.874;2023-02-22T11:17:40;37.22;;;14.57;;
51228;SDS011;37304;52.216;6.874;2023-02-22T11:22:40;34.35;;;14.40;;
51228;SDS011;37304;52.216;6.874;2023-02-22T11:27:42;30.75;;;13.48;;
51228;SDS011;37304;52.216;6.874;2023-02-22T11:32:56;31.27;;;13.70;;
51228;SDS011;37304;52.216;6.874;2023-02-22T11:38:09;29.88;;;12.70;;
51228;SDS011;37304;52.216;6.874;2023-02-22T11:43:15;33.58;;;13.95;;
51228;SDS011;37304;52.216;6.874;2023-02-22T11:48:18;32.28;;;14.65;;
51228;SDS011;37304;52.216;6.874;2023-02-22T12:04:54;25.45;;;11.98;;
51228;SDS011;37304;52.216;6.874;2023-02-22T12:20:34;26.27;;;12.57;;
51228;SDS011;37304;52.216;6.874;2023-02-22T12:36:50;27.33;;;11.90;;
51228;SDS011;37304;52.216;6.874;2023-02-22T12:42:04;30.15;;;12.13;;
51228;SDS011;37304;52.216;6.874;2023-02-22T12:47:14;29.98;;;12.13;;
51228;SDS011;37304;52.216;6.874;2023-02-22T12:52:21;28.52;;;13.23;;
51228;SDS011;37304;52.216;6.874;2023-02-22T13:08:28;28.33;;;11.75;;
51228;SDS011;37304;52.216;6.874;2023-02-22T13:29:45;29.40;;;13.85;;
51228;SDS011;37304;52.216;6.874;2023-02-22T13:34:49;26.25;;;11.75;;
51228;SDS011;37304;52.216;6.874;2023-02-22T13:40:18;27.48;;;12.60;;
51228;SDS011;37304;52.216;6.874;2023-02-22T13:56:25;26.02;;;12.10;;
51228;SDS011;37304;52.216;6.874;2023-02-22T14:06:44;28.98;;;12.88;;
51228;SDS011;37304;52.216;6.874;2023-02-22T14:11:46;28.93;;;11.33;;
51228;SDS011;37304;52.216;6.874;2023-02-22T14:17:14;27.17;;;12.43;;
51228;SDS011;37304;52.216;6.874;2023-02-22T14:22:27;30.58;;;11.88;;
51228;SDS011;37304;52.216;6.874;2023-02-22T14:27:37;27.60;;;12.07;;
51228;SDS011;37304;52.216;6.874;2023-02-22T14:32:39;27.55;;;11.63;;
51228;SDS011;37304;52.216;6.874;2023-02-22T14:37:40;30.90;;;12.23;;
51228;SDS011;37304;52.216;6.874;2023-02-22T14:42:47;31.10;;;12.98;;
51228;SDS011;37304;52.216;6.874;2023-02-22T14:53:24;24.25;;;11.38;;
51228;SDS011;37304;52.216;6.874;2023-02-22T14:58:39;25.27;;;12.02;;
51228;SDS011;37304;52.216;6.874;2023-02-22T15:03:44;29.45;;;12.00;;
51228;SDS011;37304;52.216;6.874;2023-02-22T15:08:46;27.20;;;11.20;;
51228;SDS011;37304;52.216;6.874;2023-02-22T15:13:48;25.30;;;11.02;;
51228;SDS011;37304;52.216;6.874;2023-02-22T15:18:57;29.65;;;11.63;;
51228;SDS011;37304;52.216;6.874;2023-02-22T15:24:00;30.08;;;12.82;;
51228;SDS011;37304;52.216;6.874;2023-02-22T15:29:09;30.13;;;12.20;;
51228;SDS011;37304;52.216;6.874;2023-02-22T15:39:27;24.35;;;9.88;;
51228;SDS011;37304;52.216;6.874;2023-02-22T15:44:32;26.92;;;10.10;;
51228;SDS011;37304;52.216;6.874;2023-02-22T15:49:42;26.40;;;10.98;;
51228;SDS011;37304;52.216;6.874;2023-02-22T15:54:43;21.33;;;10.13;;
51228;SDS011;37304;52.216;6.874;2023-02-22T15:59:51;22.55;;;9.73;;
51228;SDS011;37304;52.216;6.874;2023-02-22T16:04:56;24.25;;;10.65;;
51228;SDS011;37304;52.216;6.874;2023-02-22T16:09:59;26.85;;;11.18;;
51228;SDS011;37304;52.216;6.874;2023-02-22T16:15:13;25.80;;;10.82;;
51228;SDS011;37304;52.216;6.874;2023-02-22T16:30:28;23.45;;;10.48;;
51228;SDS011;37304;52.216;6.874;2023-02-22T16:35:38;22.50;;;9.88;;
51228;SDS011;37304;52.216;6.874;2023-02-22T16:40:40;28.55;;;10.90;;
51228;SDS011;37304;52.216;6.874;2023-02-22T16:45:44;27.17;;;12.38;;
51228;SDS011;37304;52.216;6.874;2023-02-22T16:50:45;30.60;;;12.20;;
51228;SDS011;37304;52.216;6.874;2023-02-22T16:55:47;26.67;;;9.98;;
51228;SDS011;37304;52.216;6.874;2023-02-22T17:00:49;23.70;;;11.23;;
51228;SDS011;37304;52.216;6.874;2023-02-22T17:05:50;29.73;;;12.00;;
51228;SDS011;37304;52.216;6.874;2023-02-22T17:10:50;27.38;;;11.95;;
51228;SDS011;37304;52.216;6.874;2023-02-22T17:15:55;27.38;;;11.65;;
51228;SDS011;37304;52.216;6.874;2023-02-22T17:20:56;30.65;;;12.73;;
51228;SDS011;37304;52.216;6.874;2023-02-22T17:25:57;30.17;;;12.47;;
51228;SDS011;37304;52.216;6.874;2023-02-22T17:30:59;29.00;;;11.85;;
51228;SDS011;37304;52.216;6.874;2023-02-22T17:36:01;30.45;;;12.35;;
51228;SDS011;37304;52.216;6.874;2023-02-22T17:41:02;27.05;;;12.73;;
51228;SDS011;37304;52.216;6.874;2023-02-22T17:46:06;30.02;;;14.65;;
51228;SDS011;37304;52.216;6.874;2023-02-22T17:51:08;30.55;;;13.57;;
51228;SDS011;37304;52.216;6.874;2023-02-22T17:56:10;33.13;;;15.82;;
51228;SDS011;37304;52.216;6.874;2023-02-22T18:06:27;29.98;;;13.63;;
51228;SDS011;37304;52.216;6.874;2023-02-22T18:11:29;28.05;;;12.38;;
51228;SDS011;37304;52.216;6.874;2023-02-22T18:16:31;29.75;;;13.35;;
51228;SDS011;37304;52.216;6.874;2023-02-22T18:21:32;28.00;;;13.25;;
51228;SDS011;37304;52.216;6.874;2023-02-22T18:26:32;24.83;;;11.03;;
51228;SDS011;37304;52.216;6.874;2023-02-22T18:31:32;23.77;;;13.33;;
51228;SDS011;37304;52.216;6.874;2023-02-22T18:36:33;26.77;;;11.40;;
51228;SDS011;37304;52.216;6.874;2023-02-22T18:41:33;28.80;;;12.97;;
51228;SDS011;37304;52.216;6.874;2023-02-22T18:46:33;30.47;;;13.30;;
51228;SDS011;37304;52.216;6.874;2023-02-22T18:51:35;29.20;;;13.32;;
51228;SDS011;37304;52.216;6.874;2023-02-22T19:01:39;25.50;;;13.25;;
51228;SDS011;37304;52.216;6.874;2023-02-22T19:06:40;26.00;;;14.10;;
51228;SDS011;37304;52.216;6.874;2023-02-22T19:11:42;31.92;;;14.85;;
51228;SDS011;37304;52.216;6.874;2023-02-22T19:16:44;29.75;;;15.07;;
51228;SDS011;37304;52.216;6.874;2023-02-22T19:21:47;28.98;;;14.80;;
51228;SDS011;37304;52.216;6.874;2023-02-22T19:26:49;28.90;;;15.00;;
51228;SDS011;37304;52.216;6.874;2023-02-22T19:31:50;27.48;;;15.77;;
51228;SDS011;37304;52.216;6.874;2023-02-22T19:36:52;28.73;;;15.52;;
51228;SDS011;37304;52.216;6.874;2023-02-22T19:46:55;29.88;;;16.08;;
51228;SDS011;37304;52.216;6.874;2023-02-22T19:56:57;29.20;;;14.77;;
51228;SDS011;37304;52.216;6.874;2023-02-22T20:06:58;30.80;;;15.50;;
51228;SDS011;37304;52.216;6.874;2023-02-22T20:16:58;29.98;;;14.70;;
51228;SDS011;37304;52.216;6.874;2023-02-22T20:26:59;34.42;;;16.05;;
51228;SDS011;37304;52.216;6.874;2023-02-22T20:37:01;28.60;;;15.55;;
51228;SDS011;37304;52.216;6.874;2023-02-22T20:47:04;37.90;;;18.55;;
51228;SDS011;37304;52.216;6.874;2023-02-22T20:52:04;32.53;;;17.10;;
51228;SDS011;37304;52.216;6.874;2023-02-22T21:02:07;34.83;;;19.13;;
51228;SDS011;37304;52.216;6.874;2023-02-22T21:07:09;37.08;;;18.00;;
51228;SDS011;37304;52.216;6.874;2023-02-22T21:17:12;43.40;;;19.35;;
51228;SDS011;37304;52.216;6.874;2023-02-22T21:27:13;49.77;;;20.50;;
51228;SDS011;37304;52.216;6.874;2023-02-22T21:32:15;47.30;;;20.95;;
51228;SDS011;37304;52.216;6.874;2023-02-22T21:37:15;50.07;;;23.07;;
51228;SDS011;37304;52.216;6.874;2023-02-22T21:42:17;42.35;;;20.45;;
51228;SDS011;37304;52.216;6.874;2023-02-22T21:47:17;49.37;;;24.23;;
51228;SDS011;37304;52.216;6.874;2023-02-22T21:57:18;46.42;;;23.77;;
51228;SDS011;37304;52.216;6.874;2023-02-22T22:07:19;55.38;;;25.13;;
51228;SDS011;37304;52.216;6.874;2023-02-22T22:12:21;54.17;;;24.98;;
51228;SDS011;37304;52.216;6.874;2023-02-22T22:17:22;47.90;;;24.02;;
51228;SDS011;37304;52.216;6.874;2023-02-22T22:22:25;45.95;;;23.63;;
51228;SDS011;37304;52.216;6.874;2023-02-22T22:27:27;52.75;;;23.83;;
51228;SDS011;37304;52.216;6.874;2023-02-22T22:32:27;53.10;;;24.80;;
51228;SDS011;37304;52.216;6.874;2023-02-22T22:37:30;50.30;;;24.23;;
51228;SDS011;37304;52.216;6.874;2023-02-22T22:47:31;50.10;;;25.27;;
51228;SDS011;37304;52.216;6.874;2023-02-22T22:57:34;61.53;;;25.67;;
51228;SDS011;37304;52.216;6.874;2023-02-22T23:02:35;60.70;;;25.95;;
51228;SDS011;37304;52.216;6.874;2023-02-22T23:07:36;58.35;;;26.10;;
51228;SDS011;37304;52.216;6.874;2023-02-22T23:12:37;55.83;;;25.77;;
51228;SDS011;37304;52.216;6.874;2023-02-22T23:17:38;60.22;;;26.58;;
51228;SDS011;37304;52.216;6.874;2023-02-22T23:22:41;53.72;;;24.65;;
51228;SDS011;37304;52.216;6.874;2023-02-22T23:27:49;66.00;;;27.23;;
51228;SDS011;37304;52.216;6.874;2023-02-22T23:32:50;67.28;;;29.17;;
51228;SDS011;37304;52.216;6.874;2023-02-22T23:37:52;66.35;;;26.10;;
51228;SDS011;37304;52.216;6.874;2023-02-22T23:42:52;72.13;;;27.37;;
51228;SDS011;37304;52.216;6.874;2023-02-22T23:47:56;67.72;;;28.30;;
51228;SDS011;37304;52.216;6.874;2023-02-22T23:53:00;60.97;;;27.77;;
51228;SDS011;37304;52.216;6.874;2023-02-22T23:58:02;59.22;;;26.80;;
